createdAt,value
2019-03-18T00:01:16.461Z,3.40
2019-03-18T00:03:47.161Z,2.77
2019-03-18T00:06:25.636Z,2.03
2019-03-18T00:08:56.247Z,2.20
2019-03-18T00:11:27.091Z,2.07
2019-03-18T00:14:35.360Z,1.90
2019-03-18T00:17:13.861Z,2.03
2019-03-18T00:19:50.457Z,1.80
2019-03-18T00:22:21.109Z,1.83
2019-03-18T00:24:51.818Z,1.80
2019-03-18T00:27:29.916Z,2.13
2019-03-18T00:30:00.498Z,2.07
2019-03-18T00:32:31.189Z,2.00
2019-03-18T00:35:11.866Z,1.83
2019-03-18T00:37:43.548Z,2.20
2019-03-18T00:40:14.276Z,2.20
2019-03-18T00:42:45.054Z,2.30
2019-03-18T00:45:15.998Z,2.57
2019-03-18T00:47:46.707Z,1.93
2019-03-18T00:50:17.473Z,2.20
2019-03-18T00:52:48.338Z,2.10
2019-03-18T00:55:18.971Z,2.40
2019-03-18T00:57:49.688Z,2.37
2019-03-18T01:00:27.195Z,2.27
2019-03-18T01:03:07.189Z,2.47
2019-03-18T01:05:39.821Z,2.20
2019-03-18T01:08:14.946Z,2.63
2019-03-18T01:10:45.615Z,2.70
2019-03-18T01:13:16.279Z,2.80
2019-03-18T01:15:46.862Z,2.60
2019-03-18T01:18:27.283Z,2.90
2019-03-18T01:21:01.948Z,2.87
2019-03-18T01:23:32.638Z,2.80
2019-03-18T01:26:03.300Z,2.90
2019-03-18T01:28:33.974Z,2.93
2019-03-18T01:31:04.635Z,3.00
2019-03-18T01:33:35.327Z,2.90
2019-03-18T01:36:06.073Z,2.77
2019-03-18T01:38:41.109Z,2.73
2019-03-18T01:41:11.754Z,2.67
2019-03-18T01:43:42.339Z,2.90
2019-03-18T01:46:13.019Z,3.10
2019-03-18T01:48:43.589Z,2.90
2019-03-18T01:51:22.534Z,3.07
2019-03-18T01:53:54.206Z,2.80
2019-03-18T01:56:24.795Z,2.73
2019-03-18T01:58:55.485Z,2.80
2019-03-18T02:01:26.163Z,3.10
2019-03-18T02:03:56.873Z,2.87
2019-03-18T02:06:52.477Z,3.50
2019-03-18T02:09:23.018Z,3.20
2019-03-18T02:11:53.696Z,2.70
2019-03-18T02:14:34.416Z,2.80
2019-03-18T02:17:05.133Z,3.13
2019-03-18T02:19:41.315Z,2.73
2019-03-18T02:22:22.982Z,2.73
2019-03-18T02:24:53.596Z,2.90
2019-03-18T02:27:41.904Z,3.00
2019-03-18T02:30:33.505Z,2.90
2019-03-18T02:33:04.222Z,2.97
2019-03-18T02:35:34.787Z,2.93
2019-03-18T02:38:05.388Z,3.40
2019-03-18T02:40:54.643Z,3.10
2019-03-18T02:43:25.378Z,2.93
2019-03-18T02:46:09.344Z,3.03
2019-03-18T02:48:28.387Z,3.13
2019-03-18T02:50:58.982Z,3.07
2019-03-18T02:53:29.668Z,3.13
2019-03-18T02:56:00.229Z,3.37
2019-03-18T02:58:42.799Z,3.67
2019-03-18T03:01:29.683Z,3.23
2019-03-18T03:04:01.384Z,4.00
2019-03-18T03:06:31.976Z,5.03
2019-03-18T03:09:02.634Z,4.90
2019-03-18T03:11:34.506Z,4.50
2019-03-18T03:14:25.541Z,3.80
2019-03-18T03:17:08.497Z,4.40
2019-03-18T03:19:39.270Z,3.90
2019-03-18T03:22:16.205Z,4.50
2019-03-18T03:24:46.800Z,4.50
2019-03-18T03:27:43.477Z,4.07
2019-03-18T03:30:14.376Z,4.27
2019-03-18T03:32:52.169Z,4.53
2019-03-18T03:35:23.907Z,4.67
2019-03-18T03:37:54.637Z,4.97
2019-03-18T03:40:25.321Z,4.77
2019-03-18T03:42:56.068Z,5.37
2019-03-18T03:45:33.683Z,6.13
2019-03-18T03:48:04.469Z,5.47
2019-03-18T03:50:34.988Z,5.50
2019-03-18T03:53:05.558Z,5.43
2019-03-18T03:55:36.229Z,5.50
2019-03-18T03:58:06.784Z,5.60
2019-03-18T04:00:37.467Z,5.30
2019-03-18T04:03:08.166Z,5.47
2019-03-18T04:05:38.667Z,5.93
2019-03-18T04:08:09.550Z,5.63
2019-03-18T04:10:47.504Z,5.17
2019-03-18T04:13:22.957Z,5.50
2019-03-18T04:15:53.652Z,5.40
2019-03-18T04:18:24.363Z,5.50
2019-03-18T04:21:07.031Z,5.27
2019-03-18T04:23:37.634Z,5.90
2019-03-18T04:26:08.293Z,6.03
2019-03-18T04:28:38.930Z,6.30
2019-03-18T04:31:09.618Z,5.90
2019-03-18T04:33:46.342Z,6.53
2019-03-18T04:36:17.064Z,7.10
2019-03-18T04:39:14.220Z,6.53
2019-03-18T04:42:17.962Z,6.77
2019-03-18T04:44:50.586Z,7.10
2019-03-18T04:47:22.275Z,6.67
2019-03-18T04:49:52.808Z,6.80
2019-03-18T04:52:41.860Z,6.90
2019-03-18T04:55:12.468Z,6.90
2019-03-18T04:57:43.151Z,7.40
2019-03-18T05:00:14.901Z,7.60
2019-03-18T05:02:49.241Z,7.60
2019-03-18T05:05:23.342Z,8.00
2019-03-18T05:07:54.397Z,7.67
2019-03-18T05:10:28.655Z,7.90
2019-03-18T05:12:59.419Z,8.60
2019-03-18T05:15:30.097Z,8.53
2019-03-18T05:18:00.740Z,9.20
2019-03-18T05:20:31.344Z,9.67
2019-03-18T05:23:01.957Z,9.23
2019-03-18T05:25:32.730Z,8.97
2019-03-18T05:28:03.474Z,9.57
2019-03-18T05:30:37.815Z,11.40
2019-03-18T05:33:08.512Z,12.60
2019-03-18T05:35:39.295Z,13.67
2019-03-18T05:38:11.011Z,12.90
2019-03-18T05:41:00.238Z,12.50
2019-03-18T05:43:36.353Z,11.00
2019-03-18T05:46:10.235Z,10.53
2019-03-18T05:48:40.929Z,10.57
2019-03-18T05:51:12.634Z,10.03
2019-03-18T05:53:43.291Z,10.13
2019-03-18T05:56:13.924Z,9.77
2019-03-18T05:58:44.624Z,10.23
2019-03-18T06:01:24.715Z,9.93
2019-03-18T06:04:03.388Z,11.23
2019-03-18T06:06:39.188Z,11.00
2019-03-18T06:09:09.879Z,10.67
2019-03-18T06:11:43.750Z,10.00
2019-03-18T06:14:35.569Z,9.70
2019-03-18T06:17:06.167Z,9.37
2019-03-18T06:19:36.792Z,9.83
2019-03-18T06:22:13.395Z,9.40
2019-03-18T06:24:44.134Z,9.07
2019-03-18T06:27:14.775Z,9.07
2019-03-18T06:29:48.423Z,8.50
2019-03-18T06:32:19.120Z,8.33
2019-03-18T06:34:50.715Z,8.27
2019-03-18T06:37:21.469Z,8.30
2019-03-18T06:39:57.248Z,8.27
2019-03-18T06:42:27.835Z,8.30
2019-03-18T06:45:10.277Z,8.93
2019-03-18T06:47:40.910Z,8.17
2019-03-18T06:50:12.642Z,7.47
2019-03-18T06:52:43.312Z,7.87
2019-03-18T06:55:13.943Z,6.90
2019-03-18T06:57:44.642Z,7.50
2019-03-18T07:00:15.340Z,7.87
2019-03-18T07:02:46.056Z,7.83
2019-03-18T07:05:16.768Z,7.30
2019-03-18T07:07:58.935Z,8.07
2019-03-18T07:10:29.669Z,8.53
2019-03-18T07:13:00.340Z,7.97
2019-03-18T07:15:30.861Z,7.90
2019-03-18T07:18:01.477Z,8.50
2019-03-18T07:20:32.145Z,8.83
2019-03-18T07:23:04.794Z,7.83
2019-03-18T07:25:35.423Z,8.67
2019-03-18T07:28:06.088Z,7.57
2019-03-18T07:30:36.757Z,7.73
2019-03-18T07:33:07.441Z,7.90
2019-03-18T07:35:38.117Z,7.70
2019-03-18T07:38:08.824Z,8.40
2019-03-18T07:40:39.559Z,8.47
2019-03-18T07:43:14.147Z,7.93
2019-03-18T07:45:44.755Z,7.77
2019-03-18T07:48:15.364Z,7.60
2019-03-18T07:50:46.015Z,7.27
2019-03-18T07:53:18.262Z,7.47
2019-03-18T07:56:15.595Z,7.20
2019-03-18T07:58:46.204Z,7.43
2019-03-18T08:01:16.810Z,7.33
2019-03-18T08:03:47.492Z,7.33
2019-03-18T08:06:36.529Z,7.00
2019-03-18T08:09:09.011Z,7.30
2019-03-18T08:11:39.711Z,7.27
2019-03-18T08:14:10.293Z,7.47
2019-03-18T08:16:41.146Z,7.70
2019-03-18T08:19:16.632Z,7.80
2019-03-18T08:21:55.084Z,8.00
2019-03-18T08:24:25.681Z,7.33
2019-03-18T08:26:56.391Z,7.27
2019-03-18T08:29:33.440Z,7.17
2019-03-18T08:32:04.120Z,7.30
2019-03-18T08:34:34.745Z,7.40
2019-03-18T08:37:09.302Z,5.17
2019-03-18T08:39:39.987Z,5.20
2019-03-18T08:42:11.717Z,4.90
2019-03-18T08:44:50.298Z,5.60
2019-03-18T08:47:26.794Z,5.13
2019-03-18T08:50:07.796Z,5.53
2019-03-18T08:52:43.845Z,6.40
2019-03-18T08:55:23.849Z,6.33
2019-03-18T08:57:54.537Z,6.90
2019-03-18T09:00:43.860Z,7.33
2019-03-18T09:03:44.737Z,6.33
2019-03-18T09:06:16.475Z,6.57
2019-03-18T09:08:47.085Z,6.50
2019-03-18T09:11:17.680Z,7.43
2019-03-18T09:13:48.352Z,8.10
2019-03-18T09:16:18.933Z,8.93
2019-03-18T09:18:49.589Z,7.73
2019-03-18T09:21:20.241Z,7.13
2019-03-18T09:24:01.123Z,7.20
2019-03-18T09:26:31.832Z,7.60
2019-03-18T09:29:02.556Z,7.00
2019-03-18T09:31:43.157Z,5.27
2019-03-18T09:34:42.409Z,5.30
2019-03-18T09:37:12.985Z,6.00
2019-03-18T09:39:43.696Z,5.30
2019-03-18T09:45:20.214Z,3.73
2019-03-18T09:48:08.828Z,3.80
2019-03-18T09:50:56.863Z,3.50
2019-03-18T09:53:29.439Z,3.57
2019-03-18T09:56:08.252Z,3.77
2019-03-18T09:58:44.799Z,4.13
2019-03-18T10:01:50.844Z,3.60
2019-03-18T10:04:21.504Z,3.13
2019-03-18T10:06:55.468Z,3.23
2019-03-18T10:09:31.344Z,3.60
2019-03-18T10:12:01.959Z,3.70
2019-03-18T10:14:41.969Z,3.90
2019-03-18T10:17:18.470Z,4.57
2019-03-18T10:19:49.096Z,3.90
2019-03-18T10:22:32.803Z,3.70
2019-03-18T10:25:04.824Z,4.10
2019-03-18T10:27:37.746Z,3.97
2019-03-18T10:30:08.112Z,3.90
2019-03-18T10:32:44.890Z,2.87
2019-03-18T10:35:15.616Z,2.20
2019-03-18T10:37:46.182Z,2.00
2019-03-18T10:40:16.785Z,2.57
2019-03-18T10:42:47.342Z,2.83
2019-03-18T10:45:18.025Z,5.53
2019-03-18T10:47:48.670Z,4.67
2019-03-18T10:50:19.408Z,4.10
2019-03-18T10:52:50.243Z,5.03
2019-03-18T10:55:27.021Z,4.40
2019-03-18T10:58:18.017Z,4.00
2019-03-18T11:00:49.918Z,4.17
2019-03-18T11:03:20.578Z,3.73
2019-03-18T11:05:53.229Z,3.57
2019-03-18T11:08:33.127Z,3.43
2019-03-18T11:11:22.082Z,3.90
2019-03-18T11:14:15.299Z,3.47
2019-03-18T11:16:45.936Z,3.70
2019-03-18T11:19:16.570Z,3.90
2019-03-18T11:21:47.356Z,4.17
2019-03-18T11:24:17.978Z,3.47
2019-03-18T11:26:55.193Z,4.00
2019-03-18T11:29:24.818Z,3.53
2019-03-18T11:31:55.427Z,3.77
2019-03-18T11:34:26.026Z,3.67
2019-03-18T11:36:56.764Z,3.37
2019-03-18T11:39:27.475Z,3.13
2019-03-18T11:41:58.126Z,3.77
2019-03-18T11:44:34.272Z,3.60
2019-03-18T11:47:11.932Z,3.27
2019-03-18T11:49:42.690Z,2.43
2019-03-18T11:52:20.366Z,2.63
2019-03-18T11:54:51.145Z,2.30
2019-03-18T11:57:22.767Z,2.67
2019-03-18T12:00:00.801Z,2.40
2019-03-18T12:02:31.496Z,2.00
2019-03-18T12:05:02.106Z,2.67
2019-03-18T12:07:46.231Z,2.67
2019-03-18T12:10:18.050Z,3.50
2019-03-18T12:12:48.749Z,3.03
2019-03-18T12:15:37.871Z,2.30
2019-03-18T12:18:08.623Z,2.80
2019-03-18T12:20:51.422Z,2.67
2019-03-18T12:23:25.118Z,2.17
2019-03-18T12:25:55.822Z,2.03
2019-03-18T12:28:39.508Z,2.10
2019-03-18T12:31:10.133Z,2.20
2019-03-18T12:33:47.398Z,2.13
2019-03-18T12:36:18.089Z,1.43
2019-03-18T12:38:48.651Z,2.00
2019-03-18T12:41:19.339Z,2.30
2019-03-18T12:43:50.009Z,1.30
2019-03-18T12:46:20.701Z,1.80
2019-03-18T12:48:51.325Z,1.90
2019-03-18T12:51:28.790Z,1.77
2019-03-18T12:54:20.678Z,1.50
2019-03-18T12:56:51.271Z,1.97
2019-03-18T12:59:21.866Z,1.80
2019-03-18T13:01:52.566Z,1.70
2019-03-18T13:04:53.921Z,1.60
2019-03-18T13:07:24.704Z,1.87
2019-03-18T13:09:55.331Z,2.17
2019-03-18T13:12:25.937Z,1.63
2019-03-18T13:14:56.440Z,1.90
2019-03-18T13:17:27.052Z,1.70
2019-03-18T13:20:08.185Z,1.40
2019-03-18T13:22:38.767Z,1.87
2019-03-18T13:25:13.288Z,2.27
2019-03-18T13:27:50.115Z,1.77
2019-03-18T13:30:21.017Z,1.73
2019-03-18T13:32:51.564Z,2.20
2019-03-18T13:35:22.243Z,1.90
2019-03-18T13:38:09.390Z,1.83
2019-03-18T13:40:48.265Z,2.60
2019-03-18T13:43:18.898Z,2.70
2019-03-18T13:45:55.226Z,3.10
2019-03-18T13:48:21.804Z,2.10
2019-03-18T13:50:53.463Z,2.60
2019-03-18T13:53:24.348Z,3.00
2019-03-18T13:55:57.361Z,2.10
2019-03-18T13:58:28.100Z,1.77
2019-03-18T14:00:58.807Z,1.90
2019-03-18T14:03:29.452Z,2.00
2019-03-18T14:06:01.383Z,2.70
2019-03-18T14:08:50.336Z,2.40
2019-03-18T14:11:26.480Z,2.63
2019-03-18T14:13:57.068Z,2.50
2019-03-18T14:16:41.595Z,2.40
2019-03-18T14:19:15.760Z,2.93
2019-03-18T14:21:46.488Z,2.57
2019-03-18T14:24:17.170Z,2.53
2019-03-18T14:26:49.802Z,2.83
2019-03-18T14:29:25.894Z,3.17
2019-03-18T14:32:06.963Z,2.10
2019-03-18T14:34:37.603Z,2.10
2019-03-18T14:37:13.785Z,2.07
2019-03-18T14:40:14.961Z,2.40
2019-03-18T14:42:50.356Z,2.13
2019-03-18T14:45:23.096Z,1.90
2019-03-18T14:47:55.804Z,2.43
2019-03-18T14:50:27.040Z,2.20
2019-03-18T14:52:57.723Z,2.30
2019-03-18T14:55:28.397Z,2.27
2019-03-18T14:58:07.095Z,2.33
2019-03-18T15:00:37.757Z,3.00
2019-03-18T15:03:10.468Z,2.13
2019-03-18T15:05:41.136Z,1.80
2019-03-18T15:08:12.794Z,1.87
2019-03-18T15:10:51.557Z,2.00
2019-03-18T15:13:32.135Z,1.80
2019-03-18T15:16:03.718Z,2.17
2019-03-18T15:18:34.364Z,2.23
2019-03-18T15:21:14.328Z,2.10
2019-03-18T15:23:49.518Z,1.97
2019-03-18T15:26:41.205Z,2.47
2019-03-18T15:29:12.000Z,2.13
2019-03-18T15:31:42.588Z,2.03
2019-03-18T15:34:13.728Z,2.03
2019-03-18T15:36:44.451Z,2.00
2019-03-18T15:39:15.187Z,2.10
2019-03-18T15:41:45.961Z,2.33
2019-03-18T15:44:21.476Z,2.50
2019-03-18T15:46:52.263Z,3.57
2019-03-18T15:49:22.850Z,3.00
2019-03-18T15:52:11.562Z,3.17
2019-03-18T15:54:53.396Z,2.60
2019-03-18T15:57:14.832Z,2.77
2019-03-18T15:59:58.124Z,1.90
2019-03-18T16:02:28.805Z,2.20
2019-03-18T16:04:59.467Z,2.00
2019-03-18T16:07:33.641Z,2.20
2019-03-18T16:10:04.767Z,1.70
2019-03-18T16:12:36.833Z,2.23
2019-03-18T16:15:08.184Z,1.97
2019-03-18T16:17:41.545Z,2.00
2019-03-18T16:20:14.640Z,2.10
2019-03-18T16:22:51.791Z,2.10
2019-03-18T16:25:30.800Z,2.00
2019-03-18T16:28:12.869Z,2.20
2019-03-18T16:30:43.643Z,1.97
2019-03-18T16:33:14.417Z,1.90
2019-03-18T16:36:12.125Z,2.40
2019-03-18T16:38:49.023Z,2.47
2019-03-18T16:41:32.955Z,2.03
2019-03-18T16:44:03.686Z,1.83
2019-03-18T16:46:34.493Z,2.00
2019-03-18T16:49:05.252Z,2.20
2019-03-18T16:51:35.852Z,2.60
2019-03-18T16:54:24.890Z,2.43
2019-03-18T16:57:02.157Z,2.20
2019-03-18T17:00:03.356Z,2.30
2019-03-18T17:02:35.313Z,1.70
2019-03-18T17:05:06.709Z,2.57
2019-03-18T17:07:37.756Z,2.37
2019-03-18T17:10:19.394Z,2.90
2019-03-18T17:12:51.165Z,2.63
2019-03-18T17:15:21.903Z,1.93
2019-03-18T17:17:52.643Z,2.27
2019-03-18T17:20:23.231Z,2.47
2019-03-18T17:22:54.092Z,1.77
2019-03-18T17:25:25.015Z,2.00
2019-03-18T17:27:57.742Z,2.20
2019-03-18T17:30:28.465Z,1.90
2019-03-18T17:33:02.348Z,2.23
2019-03-18T17:35:53.025Z,2.23
2019-03-18T17:38:28.295Z,1.90
2019-03-18T17:41:04.375Z,2.37
2019-03-18T17:43:35.112Z,2.13
2019-03-18T17:46:05.834Z,2.10
2019-03-18T17:48:43.240Z,2.00
2019-03-18T17:51:13.756Z,1.93
2019-03-18T17:53:45.380Z,2.30
2019-03-18T17:56:29.326Z,3.13
2019-03-18T17:58:50.597Z,2.00
2019-03-18T18:01:22.397Z,2.30
2019-03-18T18:03:54.593Z,2.20
2019-03-18T18:06:38.338Z,2.00
2019-03-18T18:09:09.248Z,2.30
2019-03-18T18:11:44.221Z,2.50
2019-03-18T18:14:14.883Z,2.37
2019-03-18T18:16:45.665Z,2.77
2019-03-18T18:19:16.241Z,2.67
2019-03-18T18:22:14.173Z,2.87
2019-03-18T18:24:44.968Z,2.43
2019-03-18T18:27:19.136Z,2.40
2019-03-18T18:30:01.066Z,2.43
2019-03-18T18:32:32.897Z,2.20
2019-03-18T18:35:12.843Z,2.73
2019-03-18T18:37:44.709Z,2.50
2019-03-18T18:40:27.376Z,2.70
2019-03-18T18:43:00.094Z,2.13
2019-03-18T18:45:31.184Z,2.53
2019-03-18T18:48:10.717Z,2.70
2019-03-18T18:50:41.644Z,2.40
2019-03-18T18:53:25.746Z,3.33
2019-03-18T18:55:48.545Z,2.90
2019-03-18T18:58:29.275Z,2.37
2019-03-18T19:01:00.065Z,2.07
2019-03-18T19:03:39.155Z,2.30
2019-03-18T19:06:10.104Z,2.53
2019-03-18T19:08:42.870Z,2.00
2019-03-18T19:11:15.692Z,2.73
2019-03-18T19:13:51.777Z,2.50
2019-03-18T19:16:23.703Z,2.60
2019-03-18T19:19:00.605Z,2.50
2019-03-18T19:21:31.373Z,2.23
2019-03-18T19:24:02.024Z,2.30
2019-03-18T19:26:47.358Z,2.50
2019-03-18T19:29:18.041Z,2.40
2019-03-18T19:31:58.487Z,2.37
2019-03-18T19:34:31.282Z,2.83
2019-03-18T19:37:02.021Z,2.57
2019-03-18T19:39:33.032Z,2.30
2019-03-18T19:42:07.433Z,2.90
2019-03-18T19:44:38.251Z,2.40
2019-03-18T19:47:10.782Z,2.77
2019-03-18T19:49:41.564Z,2.80
2019-03-18T19:52:13.460Z,2.43
2019-03-18T19:54:44.301Z,2.73
2019-03-18T19:57:19.136Z,2.87
2019-03-18T19:59:49.845Z,3.17
2019-03-18T20:02:26.472Z,2.90
2019-03-18T20:04:57.240Z,2.83
2019-03-18T20:07:36.817Z,3.10
2019-03-18T20:10:11.385Z,3.17
2019-03-18T20:12:44.106Z,2.63
2019-03-18T20:15:15.122Z,3.23
2019-03-18T20:17:48.033Z,2.70
2019-03-18T20:20:20.088Z,2.73
2019-03-18T20:22:51.881Z,3.53
2019-03-18T20:25:22.760Z,3.10
2019-03-18T20:27:58.783Z,3.27
2019-03-18T20:30:29.777Z,2.83
2019-03-18T20:33:00.602Z,3.10
2019-03-18T20:35:32.546Z,3.07
2019-03-18T20:38:03.537Z,3.20
2019-03-18T20:40:34.460Z,2.70
2019-03-18T20:43:05.223Z,2.63
2019-03-18T20:45:35.873Z,2.70
2019-03-18T20:48:07.607Z,3.00
2019-03-18T20:50:38.342Z,3.73
2019-03-18T20:53:18.483Z,3.07
2019-03-18T20:55:50.181Z,3.20
2019-03-18T20:58:20.885Z,3.67
2019-03-18T21:00:59.832Z,2.90
2019-03-18T21:03:33.869Z,2.70
2019-03-18T21:06:04.591Z,3.17
2019-03-18T21:08:35.638Z,2.80
2019-03-18T21:11:07.238Z,3.47
2019-03-18T21:13:44.303Z,3.67
2019-03-18T21:16:16.386Z,3.17
2019-03-18T21:18:57.403Z,2.70
2019-03-18T21:21:28.189Z,2.60
2019-03-18T21:24:22.719Z,2.73
2019-03-18T21:26:52.514Z,2.80
2019-03-18T21:29:27.679Z,3.43
2019-03-18T21:32:02.577Z,3.00
2019-03-18T21:34:33.443Z,3.03
2019-03-18T21:37:05.331Z,3.30
2019-03-18T21:39:42.089Z,2.93
2019-03-18T21:42:12.814Z,2.83
2019-03-18T21:44:55.271Z,2.83
2019-03-18T21:47:29.864Z,3.10
2019-03-18T21:50:07.634Z,3.33
2019-03-18T21:52:40.449Z,2.40
2019-03-18T21:55:12.004Z,2.97
2019-03-18T21:57:42.956Z,4.77
2019-03-18T22:00:23.757Z,3.03
2019-03-18T22:02:58.509Z,2.90
2019-03-18T22:05:29.094Z,2.80
2019-03-18T22:08:00.728Z,3.10
2019-03-18T22:10:31.497Z,3.20
2019-03-18T22:13:13.121Z,3.23
2019-03-18T22:15:53.889Z,2.97
2019-03-18T22:18:24.543Z,2.97
2019-03-18T22:21:03.523Z,2.77
2019-03-18T22:23:35.410Z,3.33
2019-03-18T22:26:07.244Z,3.07
2019-03-18T22:28:49.924Z,3.33
2019-03-18T22:31:25.813Z,3.27
2019-03-18T22:33:56.504Z,3.60
2019-03-18T22:36:34.679Z,3.40
2019-03-18T22:39:08.490Z,2.97
2019-03-18T22:42:24.975Z,3.47
2019-03-18T22:44:55.988Z,3.40
2019-03-18T22:47:27.934Z,3.40
2019-03-18T22:50:05.991Z,2.97
2019-03-18T22:53:03.405Z,3.50
2019-03-18T22:55:38.892Z,3.97
2019-03-18T22:58:09.675Z,3.57
2019-03-18T23:00:49.146Z,3.80
2019-03-18T23:03:22.893Z,3.43
2019-03-18T23:05:56.668Z,3.80
2019-03-18T23:08:34.995Z,3.30
2019-03-18T23:11:07.543Z,3.73
2019-03-18T23:13:49.735Z,3.63
2019-03-18T23:16:23.899Z,3.77
2019-03-18T23:18:55.173Z,3.63
2019-03-18T23:21:25.765Z,3.67
2019-03-18T23:23:56.708Z,4.33
2019-03-18T23:26:37.801Z,3.07
2019-03-18T23:29:15.405Z,3.80
2019-03-18T23:31:46.695Z,3.20
2019-03-18T23:34:19.377Z,3.63
2019-03-18T23:36:50.847Z,3.90
2019-03-18T23:39:23.143Z,3.33
2019-03-18T23:41:54.543Z,3.87
2019-03-18T23:44:37.501Z,3.50
2019-03-18T23:47:10.913Z,3.70
2019-03-18T23:49:41.955Z,3.70
2019-03-18T23:52:13.323Z,3.30
2019-03-18T23:54:58.294Z,3.03
2019-03-18T23:57:29.480Z,3.80
